Time;durP1;ratioP1;P1;durP2;ratioP2;P2;SDS_P1;SDS_P2;PMS_P1;PMS_P2;Temp;Humidity;BMP_temperature;BMP_pressure;BME280_temperature;BME280_humidity;BME280_pressure;Samples;Min_cycle;Max_cycle;Signal;HPM_P1;HPM_P2
2022/05/12 00:02:22;;;;;;;;;;;;;;;;;;;;;
2022/05/12 00:05:57;;;;;;;4.30;1.57;;;18.00;97.20;;;18.90;85.81;97830.03;4969188;28;20500;-76
2022/05/12 00:08:40;;;;;;;3.40;1.70;;;18.10;96.90;;;18.94;85.37;97823.19;5017276;28;20844;-76
2022/05/12 00:11:36;;;;;;;3.30;1.60;;;18.10;96.70;;;18.97;85.03;97839.41;5006212;28;20477;-76
2022/05/12 00:14:31;;;;;;;5.50;1.50;;;18.20;96.60;;;19.03;84.85;97838.41;5012509;28;20496;-75
2022/05/12 00:17:09;;;;;;;2.93;1.50;;;18.20;96.60;;;19.07;84.60;97844.03;5014801;28;20506;-76
2022/05/12 00:19:38;;;;;;;2.37;1.20;;;18.30;96.60;;;19.08;84.61;97845.63;5014602;28;20529;-75
2022/05/12 00:22:14;;;;;;;4.60;1.67;;;18.30;96.50;;;19.11;84.49;97845.13;5016429;28;20473;-75
2022/05/12 00:24:59;;;;;;;3.37;1.50;;;18.20;96.50;;;19.11;84.79;97855.75;5015304;28;20983;-75
2022/05/12 00:27:42;;;;;;;3.30;1.30;;;18.40;96.50;;;19.13;84.81;97852.81;5015821;28;20469;-75
2022/05/12 00:30:44;;;;;;;2.17;1.40;;;18.40;96.60;;;19.17;85.24;97861.91;5014871;28;20494;-75
2022/05/12 00:33:14;;;;;;;5.63;1.30;;;18.40;96.70;;;19.12;86.45;97861.84;5006331;28;20552;-75
2022/05/12 00:35:50;;;;;;;2.60;1.67;;;18.40;97.00;;;19.07;86.74;97858.09;5012473;28;20530;-75
2022/05/12 00:38:19;;;;;;;3.90;1.30;;;18.20;97.20;;;19.07;87.02;97868.69;5017177;28;20602;-75
2022/05/12 00:41:10;;;;;;;1.67;1.23;;;18.20;97.50;;;18.98;88.37;97877.31;5013432;28;20453;-76
2022/05/12 00:44:05;;;;;;;2.43;1.20;;;18.10;97.70;;;18.93;89.00;97882.53;5017662;28;20468;-75
2022/05/12 00:46:53;;;;;;;2.33;1.27;;;18.00;97.80;;;18.89;89.60;97879.56;5018740;28;20516;-76
2022/05/12 00:50:04;;;;;;;3.00;1.50;;;18.00;97.90;;;18.86;89.77;97869.44;5017512;28;20473;-75
2022/05/12 00:52:48;;;;;;;2.67;1.60;;;17.90;98.00;;;18.76;90.29;97879.09;5014646;28;20528;-75
2022/05/12 00:55:44;;;;;;;6.30;1.50;;;18.00;97.90;;;18.69;91.33;97889.06;5016873;28;20976;-76
2022/05/12 01:01:22;;;;;;;8.50;1.80;;;17.70;98.50;;;18.61;91.83;97898.22;5019327;28;20474;-75
2022/05/12 01:07:56;;;;;;;2.23;2.00;;;17.70;98.60;;;18.48;93.87;97909.91;5022708;28;20510;-75
2022/05/12 01:14:15;;;;;;;12.33;1.90;;;17.50;99.10;;;18.43;94.24;97923.06;4981863;28;20885;-76
2022/05/12 01:17:01;;;;;;;1.93;1.40;;;17.50;98.90;;;18.36;94.85;97925.06;5024440;28;20521;-75
2022/05/12 01:20:03;;;;;;;2.80;1.40;;;17.40;99.00;;;18.31;95.44;97932.13;5025767;28;20493;-76
2022/05/12 01:23:03;;;;;;;8.77;1.27;;;17.40;99.20;;;18.26;95.95;97927.53;5019750;28;20476;-75
2022/05/12 01:28:57;;;;;;;1.43;1.30;;;17.20;99.40;;;18.18;97.23;97925.31;4947492;29;20469;-75
2022/05/12 01:31:27;;;;;;;2.47;1.30;;;17.30;99.50;;;18.13;97.62;97934.97;4947860;29;20556;-76
2022/05/12 01:34:16;;;;;;;4.50;1.90;;;17.10;99.70;;;18.01;99.29;97932.41;4932179;29;20458;-75
2022/05/12 01:36:49;;;;;;;1.80;1.23;;;17.00;99.80;;;18.05;99.31;97928.22;4947517;29;20575;-75
2022/05/12 01:39:41;;;;;;;5.07;1.57;;;17.00;99.90;;;17.99;99.82;97937.13;4908272;29;20482;-76
2022/05/12 01:42:15;;;;;;;4.10;1.20;;;17.00;99.90;;;18.01;99.21;97935.84;4947057;28;20504;-75
2022/05/12 01:45:04;;;;;;;2.27;1.33;;;17.10;99.90;;;18.00;100.00;97949.31;4945207;28;20465;-75
2022/05/12 01:47:41;;;;;;;3.07;1.77;;;17.00;99.90;;;17.94;100.00;97951.06;4942960;28;20477;-75
2022/05/12 01:51:09;;;;;;;2.13;1.33;;;17.00;99.90;;;17.82;100.00;97952.94;4945399;28;21007;-75
2022/05/12 01:53:49;;;;;;;;;;;;;;;;;;;;;
2022/05/12 01:56:24;;;;;;;1.80;1.40;;;16.90;99.90;;;17.79;100.00;97963.19;4942307;28;20587;-76
2022/05/12 02:01:48;;;;;;;1.93;1.27;;;16.80;99.90;;;17.73;100.00;97969.44;5020370;28;20473;-75
2022/05/12 02:04:19;;;;;;;1.93;1.30;;;16.70;99.90;;;17.69;100.00;97973.56;5021105;28;20462;-76
2022/05/12 02:07:18;;;;;;;3.23;1.67;;;16.80;99.90;;;17.67;100.00;97975.66;5021422;28;21013;-75
2022/05/12 02:10:28;;;;;;;2.47;1.50;;;16.70;99.90;;;17.63;100.00;97985.91;5032296;28;20444;-75
2022/05/12 02:16:16;;;;;;;8.13;1.60;;;16.70;99.90;;;17.62;100.00;97976.34;5011729;28;20553;-76
2022/05/12 02:18:55;;;;;;;4.10;1.40;;;16.70;99.90;;;17.62;100.00;97979.00;5021770;28;20458;-76
2022/05/12 02:21:39;;;;;;;2.93;1.53;;;16.70;99.90;;;17.59;100.00;97980.28;5001103;28;20470;-76
2022/05/12 02:24:47;;;;;;;1.97;1.47;;;16.70;99.90;;;17.54;100.00;97980.13;5018814;28;21100;-76
2022/05/12 02:27:20;;;;;;;3.67;1.33;;;16.50;99.90;;;17.58;100.00;97986.59;5018842;28;20469;-75
2022/05/12 02:30:13;;;;;;;3.63;1.53;;;16.60;99.90;;;17.62;100.00;97980.84;5019167;28;20824;-75
2022/05/12 02:32:50;;;;;;;2.70;1.47;;;16.70;99.90;;;17.60;100.00;97987.16;5019194;28;21102;-75
2022/05/12 02:35:30;;;;;;;2.87;1.60;;;16.60;99.90;;;17.60;100.00;97989.78;5016853;28;20532;-75
2022/05/12 02:38:12;;;;;;;6.60;1.60;;;16.60;99.90;;;17.61;100.00;97993.25;5018161;28;20579;-75
2022/05/12 02:40:50;;;;;;;3.00;1.47;;;16.70;99.90;;;17.57;100.00;97992.91;5018806;28;20541;-76
2022/05/12 02:43:32;;;;;;;2.67;1.50;;;16.70;99.90;;;17.56;100.00;97993.94;5015177;28;20481;-75
2022/05/12 02:46:29;;;;;;;7.40;1.30;;;16.70;99.90;;;17.50;100.00;98002.78;5019411;28;20463;-75
2022/05/12 02:49:15;;;;;;;2.10;1.43;;;16.60;99.90;;;17.51;100.00;98004.41;5018107;28;21410;-75
2022/05/12 02:52:00;;;;;;;7.63;1.50;;;16.60;99.90;;;17.49;100.00;98005.66;5014231;28;20475;-75
2022/05/12 02:58:19;;;;;;;2.77;1.30;;;16.60;99.90;;;17.41;100.00;98020.03;5016477;28;20485;-75
2022/05/12 03:01:10;;;;;;;7.80;1.57;;;16.50;99.90;;;17.41;100.00;98032.44;5019436;28;20454;-76
2022/05/12 03:03:42;;;;;;;2.87;1.43;;;16.50;99.90;;;17.38;100.00;98027.63;5019608;28;20468;-75
2022/05/12 03:06:14;;;;;;;1.40;1.10;;;16.50;99.90;;;17.39;100.00;98030.03;5018473;28;20489;-75
2022/05/12 03:09:16;;;;;;;2.17;1.40;;;16.40;99.90;;;17.33;100.00;98038.88;5019233;28;20501;-82
2022/05/12 03:11:52;;;;;;;16.20;7.63;;;16.30;99.90;;;17.34;100.00;98037.84;5018553;28;20498;-75
2022/05/12 03:14:21;;;;;;;6.03;1.67;;;16.30;99.90;;;17.33;100.00;98036.25;5016464;28;21120;-75
2022/05/12 03:17:14;;;;;;;4.33;1.80;;;16.40;99.90;;;17.25;100.00;98052.44;5016634;28;20490;-75
2022/05/12 03:19:52;;;;;;;3.10;1.57;;;16.30;99.90;;;17.22;100.00;98066.13;5020534;28;20462;-75
2022/05/12 03:31:25;;;;;;;4.93;1.63;;;16.20;99.90;;;17.15;100.00;98086.56;4992055;28;20464;-76
2022/05/12 03:34:00;;;;;;;32.63;12.17;;;16.10;99.90;;;17.10;100.00;98083.81;4998805;28;20501;-84
2022/05/12 03:46:57;;;;;;;1.97;1.30;;;15.90;99.90;;;16.90;100.00;98101.81;5006356;28;20473;-76
2022/05/12 03:49:27;;;;;;;2.37;1.40;;;15.90;99.90;;;16.92;100.00;98112.94;5019154;28;20544;-76
2022/05/12 03:51:58;;;;;;;5.93;1.60;;;15.90;99.90;;;16.81;100.00;98114.50;5019507;28;20455;-84
2022/05/12 03:54:29;;;;;;;5.67;2.70;;;15.80;99.90;;;16.80;100.00;98112.13;5019302;28;20513;-76
2022/05/12 03:56:59;;;;;;;5.00;1.80;;;15.80;99.90;;;16.81;100.00;98122.44;5018798;28;20467;-76
2022/05/12 03:59:30;;;;;;;22.60;10.00;;;15.80;99.90;;;16.79;100.00;98131.63;5018605;28;20473;-76
2022/05/12 04:02:00;;;;;;;6.47;2.40;;;15.80;99.90;;;16.78;100.00;98125.53;5017384;28;21238;-75
2022/05/12 04:04:31;;;;;;;3.80;1.70;;;15.80;99.90;;;16.82;100.00;98131.16;5017625;28;20490;-75
2022/05/12 04:07:02;;;;;;;2.40;1.60;;;15.70;99.90;;;16.76;100.00;98138.16;5020042;28;20459;-76
2022/05/12 04:09:32;;;;;;;4.63;2.00;;;15.80;99.90;;;16.74;100.00;98134.94;5018967;28;20458;-75
2022/05/12 04:12:03;;;;;;;3.17;1.73;;;15.80;99.90;;;16.68;100.00;98132.38;5019400;28;20826;-76
2022/05/12 04:14:34;;;;;;;7.93;3.70;;;15.80;99.90;;;16.67;100.00;98136.03;5020551;28;20539;-75
2022/05/12 04:17:06;;;;;;;6.40;1.63;;;15.80;99.90;;;16.67;100.00;98138.69;5024583;28;20816;-76
2022/05/12 04:19:36;;;;;;;1.80;1.50;;;15.70;99.90;;;16.68;100.00;98142.94;5022871;28;20493;-76
2022/05/12 04:22:05;;;;;;;5.93;1.70;;;15.70;99.90;;;16.57;100.00;98145.31;5024622;28;20551;-76
2022/05/12 04:24:35;;;;;;;3.90;1.50;;;15.80;99.90;;;16.53;100.00;98151.22;5025117;28;20466;-76
2022/05/12 04:27:06;;;;;;;9.50;1.63;;;15.70;99.90;;;16.50;100.00;98155.09;5024808;28;20914;-76
2022/05/12 04:29:38;;;;;;;3.13;1.47;;;15.60;99.90;;;16.49;100.00;98158.78;5023453;28;20505;-76
2022/05/12 04:32:10;;;;;;;3.03;1.80;;;15.70;99.90;;;16.53;100.00;98159.13;5021065;28;20477;-76
2022/05/12 04:37:29;;;;;;;2.00;1.50;;;15.70;99.90;;;16.51;100.00;98169.94;5018664;28;20992;-76
2022/05/12 04:40:04;;;;;;;3.80;1.43;;;15.70;99.90;;;16.51;100.00;98167.28;5018804;28;20450;-76
2022/05/12 04:42:34;;;;;;;5.00;2.10;;;15.60;99.90;;;16.53;100.00;98181.06;5019078;28;20447;-76
2022/05/12 04:45:03;;;;;;;1.43;1.23;;;15.60;99.90;;;16.47;100.00;98175.88;5018665;28;20483;-76
2022/05/12 04:47:36;;;;;;;2.20;1.63;;;15.60;99.90;;;16.51;100.00;98179.69;5019906;28;20483;-76
2022/05/12 04:50:11;;;;;;;3.07;1.50;;;15.50;99.90;;;16.51;100.00;98185.78;5017759;28;20533;-76
2022/05/12 04:52:41;;;;;;;1.90;1.50;;;15.60;99.90;;;16.47;100.00;98186.44;5019588;28;21261;-76
2022/05/12 04:55:11;;;;;;;3.23;1.80;;;15.50;99.90;;;16.47;100.00;98192.50;5019133;28;20454;-76
2022/05/12 04:57:45;;;;;;;2.23;1.53;;;15.60;99.90;;;16.50;100.00;98201.81;5020156;28;20438;-76
2022/05/12 05:00:20;;;;;;;6.07;1.80;;;15.60;99.90;;;16.58;100.00;98210.31;5018271;28;20458;-76
2022/05/12 05:02:51;;;;;;;1.63;1.43;;;15.60;99.90;;;16.61;100.00;98214.31;5017416;28;20454;-76
2022/05/12 05:05:23;;;;;;;13.53;2.00;;;15.70;99.90;;;16.66;100.00;98213.66;5019197;28;20520;-76
2022/05/12 05:07:54;;;;;;;3.00;1.60;;;15.70;99.90;;;16.71;100.00;98219.06;5017903;28;20442;-76
2022/05/12 05:10:24;;;;;;;7.70;1.73;;;15.70;99.90;;;16.77;100.00;98219.00;5019018;28;20497;-76
2022/05/12 05:12:55;;;;;;;4.47;2.00;;;15.80;99.90;;;16.80;100.00;98218.53;5019346;28;20438;-76
2022/05/12 05:15:25;;;;;;;2.20;1.83;;;15.80;99.90;;;16.84;100.00;98225.00;5020499;28;20438;-76
2022/05/12 05:17:56;;;;;;;4.90;1.70;;;15.90;99.90;;;16.87;100.00;98229.06;5022866;28;20968;-76
2022/05/12 05:20:30;;;;;;;2.20;1.80;;;15.90;99.90;;;16.94;100.00;98235.03;5020909;28;20528;-76
2022/05/12 05:22:58;;;;;;;2.90;1.77;;;16.00;99.90;;;16.95;100.00;98241.94;5018232;28;21093;-76
2022/05/12 05:25:27;;;;;;;5.47;1.77;;;16.00;99.90;;;16.96;100.00;98243.56;5018440;28;20462;-75
2022/05/12 05:27:57;;;;;;;3.27;1.30;;;16.00;99.90;;;16.97;100.00;98240.69;5018948;28;20477;-76
2022/05/12 05:30:30;;;;;;;4.53;1.80;;;16.00;99.90;;;17.01;100.00;98249.78;5020567;28;20434;-76
2022/05/12 05:33:01;;;;;;;3.70;2.00;;;16.10;99.90;;;17.02;100.00;98251.41;5025074;28;20492;-76
2022/05/12 05:35:31;;;;;;;1.80;1.53;;;16.10;99.90;;;17.08;100.00;98253.16;5024840;28;20473;-76
2022/05/12 05:38:01;;;;;;;6.83;1.70;;;16.10;99.90;;;17.06;100.00;98255.22;5021093;28;20881;-76
2022/05/12 05:40:31;;;;;;;2.60;1.60;;;16.20;99.90;;;17.11;100.00;98251.91;5017351;28;20443;-76
2022/05/12 05:43:02;;;;;;;7.43;2.10;;;16.10;99.90;;;17.13;100.00;98249.03;5018933;28;20465;-76
2022/05/12 05:45:33;;;;;;;15.60;1.80;;;16.10;99.90;;;17.17;100.00;98264.22;5018611;28;20568;-76
2022/05/12 05:48:06;;;;;;;4.47;1.53;;;16.20;99.90;;;17.17;100.00;98264.22;5020432;28;20465;-75
2022/05/12 05:53:26;;;;;;;2.93;1.80;;;16.30;99.90;;;17.19;100.00;98269.28;5019730;28;20434;-76
2022/05/12 05:55:58;;;;;;;5.20;1.70;;;16.30;99.90;;;17.17;100.00;98264.22;5021652;28;20517;-76
2022/05/12 05:58:31;;;;;;;3.57;1.63;;;16.40;99.90;;;17.18;100.00;98268.47;5021776;28;20533;-76
2022/05/12 06:01:01;;;;;;;2.00;1.60;;;16.50;99.90;;;17.18;100.00;98284.31;5020129;28;20446;-76
2022/05/12 06:03:33;;;;;;;2.73;1.50;;;16.40;99.90;;;17.22;100.00;98279.41;5022646;28;20442;-76
2022/05/12 06:06:03;;;;;;;3.03;1.80;;;16.50;99.90;;;17.17;100.00;98288.00;5020908;28;20928;-76
2022/05/12 06:08:33;;;;;;;7.43;1.83;;;16.40;99.90;;;17.20;100.00;98287.56;5021952;28;20537;-76
2022/05/12 06:11:04;;;;;;;3.37;2.13;;;16.50;99.90;;;17.19;100.00;98290.41;5021405;28;20474;-76
2022/05/12 06:13:36;;;;;;;4.03;1.73;;;16.40;99.90;;;17.13;100.00;98289.47;5022325;28;20450;-76
2022/05/12 06:16:07;;;;;;;6.13;1.73;;;16.30;99.90;;;17.16;100.00;98299.59;5021353;28;20537;-76
2022/05/12 06:18:39;;;;;;;6.40;1.77;;;16.30;99.90;;;17.10;100.00;98303.16;5023478;28;21089;-76
2022/05/12 06:21:12;;;;;;;3.43;2.13;;;16.20;99.90;;;17.12;100.00;98306.34;5027234;28;20846;-76
2022/05/12 06:23:43;;;;;;;4.27;1.90;;;16.30;99.90;;;17.08;100.00;98308.63;5026138;28;20470;-76
2022/05/12 06:26:14;;;;;;;2.53;1.70;;;16.40;99.90;;;17.10;100.00;98301.31;5026711;28;20443;-76
2022/05/12 06:28:46;;;;;;;2.90;1.73;;;16.40;99.90;;;17.11;100.00;98310.84;5026451;28;20478;-76
2022/05/12 06:31:24;;;;;;;3.80;1.83;;;16.40;99.90;;;17.16;100.00;98306.72;5025304;28;20438;-76
2022/05/12 06:33:55;;;;;;;2.57;1.40;;;16.40;99.90;;;17.17;100.00;98309.16;5024331;28;20438;-76
2022/05/12 06:36:29;;;;;;;3.43;1.60;;;16.50;99.90;;;17.16;100.00;98310.19;5026893;28;20430;-76
2022/05/12 06:39:00;;;;;;;5.60;1.93;;;16.30;99.90;;;17.21;100.00;98307.69;5026993;28;20949;-76
2022/05/12 06:41:30;;;;;;;2.60;1.60;;;16.40;99.90;;;17.27;100.00;98313.91;5025950;28;20531;-76
2022/05/12 06:44:01;;;;;;;4.60;1.77;;;16.50;99.90;;;17.35;100.00;98310.97;5026495;28;20526;-76
2022/05/12 06:46:31;;;;;;;3.73;1.83;;;16.50;99.90;;;17.40;100.00;98311.09;5025498;28;20863;-76
2022/05/12 06:49:03;;;;;;;2.20;1.37;;;16.60;99.90;;;17.46;100.00;98313.63;5026376;28;20561;-76
2022/05/12 06:51:34;;;;;;;2.93;1.80;;;16.70;99.90;;;17.40;100.00;98319.00;5026144;28;21019;-76
2022/05/12 06:54:04;;;;;;;2.70;1.80;;;16.60;99.90;;;17.41;100.00;98321.44;5025270;28;20553;-76
2022/05/12 06:56:34;;;;;;;8.13;2.33;;;16.60;99.90;;;17.40;100.00;98316.38;5025302;28;20474;-76
2022/05/12 06:59:05;;;;;;;19.90;1.97;;;16.70;99.90;;;17.41;100.00;98313.53;5025314;28;20547;-76
2022/05/12 07:01:35;;;;;;;3.57;1.90;;;16.70;99.90;;;17.49;100.00;98312.41;5025017;28;20508;-76
2022/05/12 07:04:06;;;;;;;5.97;1.70;;;16.80;99.90;;;17.49;100.00;98313.19;5025910;28;20465;-76
2022/05/12 07:06:37;;;;;;;6.80;1.80;;;16.70;99.90;;;17.60;100.00;98314.28;5026080;28;20508;-76
2022/05/12 07:09:07;;;;;;;3.83;1.83;;;16.80;99.90;;;17.58;100.00;98316.38;5024139;28;20454;-76
2022/05/12 07:11:38;;;;;;;5.13;1.97;;;16.90;99.90;;;17.59;100.00;98313.50;5024941;28;20549;-75
2022/05/12 07:14:08;;;;;;;2.40;1.53;;;16.90;99.90;;;17.62;100.00;98314.09;5026367;28;20453;-76
2022/05/12 07:16:38;;;;;;;2.20;1.60;;;16.80;99.90;;;17.69;100.00;98318.25;5024837;28;20449;-76
2022/05/12 07:19:11;;;;;;;2.90;1.63;;;16.90;99.90;;;17.69;100.00;98312.16;5026164;28;21048;-76
2022/05/12 07:27:25;;;;;;;7.37;2.27;;;17.00;99.90;;;17.66;100.00;98323.19;4976214;28;20461;-76
2022/05/12 07:29:54;;;;;;;6.20;2.30;;;17.10;99.90;;;17.72;100.00;98322.28;5025149;28;20446;-76
2022/05/12 07:32:25;;;;;;;4.23;1.80;;;17.00;99.90;;;17.74;100.00;98325.50;5024805;28;20502;-76
2022/05/12 07:34:57;;;;;;;2.90;1.70;;;17.00;99.90;;;17.74;100.00;98325.50;5024999;28;20453;-76
2022/05/12 07:37:29;;;;;;;4.13;1.90;;;17.00;99.90;;;17.74;100.00;98336.88;5026251;28;20438;-76
2022/05/12 07:39:59;;;;;;;3.30;1.90;;;17.10;99.90;;;17.79;100.00;98333.56;5025024;28;20486;-76
2022/05/12 07:42:29;;;;;;;10.33;2.13;;;17.10;99.90;;;17.80;98.36;98329.91;5024031;28;20868;-76
2022/05/12 07:44:59;;;;;;;3.90;2.00;;;17.10;99.90;;;17.92;98.46;98333.38;5025781;28;20446;-76
2022/05/12 07:47:29;;;;;;;4.47;1.60;;;17.20;99.90;;;17.99;97.40;98326.13;5023185;28;20540;-76
2022/05/12 07:50:01;;;;;;;7.43;1.53;;;17.30;99.90;;;18.05;95.96;98333.97;5019521;28;20463;-76
2022/05/12 07:52:32;;;;;;;6.93;1.10;;;17.40;99.90;;;18.06;90.87;98334.78;5016910;28;20544;-76
2022/05/12 07:55:02;;;;;;;3.63;1.30;;;17.30;98.60;;;18.10;89.94;98341.25;5020081;28;20451;-76
2022/05/12 07:57:31;;;;;;;7.60;1.43;;;17.30;98.70;;;18.10;86.78;98341.25;5019705;28;20525;-76
2022/05/12 08:00:01;;;;;;;6.87;1.40;;;17.30;98.00;;;18.15;86.31;98343.22;5018194;28;21723;-76
2022/05/12 08:02:31;;;;;;;5.30;1.20;;;17.40;97.80;;;18.14;82.94;98355.63;5017048;28;20449;-76
2022/05/12 08:05:04;;;;;;;5.03;2.03;;;17.50;97.10;;;18.13;81.17;98346.06;5018330;28;20508;-76
2022/05/12 08:07:35;;;;;;;2.83;1.40;;;17.50;96.50;;;18.26;82.49;98351.16;5020022;28;20445;-76
2022/05/12 08:10:08;;;;;;;2.70;1.33;;;17.50;97.00;;;18.32;82.18;98349.44;5019851;28;20455;-76
2022/05/12 08:12:37;;;;;;;4.03;1.37;;;17.60;96.80;;;18.39;82.13;98356.25;5017757;28;20449;-76
2022/05/12 08:15:09;;;;;;;2.60;1.23;;;17.70;96.80;;;18.44;81.82;98348.41;5019190;28;20459;-76
2022/05/12 08:17:40;;;;;;;4.30;1.20;;;17.80;96.90;;;18.52;80.43;98349.94;5019297;28;20466;-76
2022/05/12 08:20:14;;;;;;;2.13;1.13;;;17.90;96.50;;;18.58;78.88;98351.66;5019923;28;20570;-76
2022/05/12 08:22:44;;;;;;;2.00;1.03;;;17.90;96.10;;;18.60;76.33;98355.69;5019733;28;20535;-76
2022/05/12 08:25:14;;;;;;;3.57;1.40;;;17.90;95.50;;;18.65;76.07;98355.00;5019576;28;20493;-76
2022/05/12 08:27:44;;;;;;;6.57;1.40;;;17.90;95.50;;;18.66;75.10;98346.03;5018819;28;21366;-76
2022/05/12 08:30:16;;;;;;;6.73;1.20;;;18.00;95.10;;;18.71;74.44;98354.06;5019052;28;20451;-76
2022/05/12 08:32:46;;;;;;;2.67;1.13;;;18.00;95.00;;;18.66;72.36;98353.16;5018420;28;20971;-76
2022/05/12 08:35:17;;;;;;;6.10;1.33;;;18.10;94.40;;;18.66;75.00;98355.81;5018763;28;21218;-76
2022/05/12 08:37:48;;;;;;;2.60;1.27;;;18.00;95.40;;;18.67;80.47;98363.56;5019908;28;20500;-76
2022/05/12 08:40:36;;;;;;;3.00;1.30;;;18.00;96.80;;;18.69;81.69;98358.81;5019140;28;20494;-76
2022/05/12 08:43:15;;;;;;;5.23;1.40;;;18.00;97.10;;;18.72;81.38;98360.19;5018584;28;20513;-76
2022/05/12 08:45:47;;;;;;;2.07;1.10;;;18.00;96.80;;;18.76;76.17;98369.28;5022506;28;20529;-76
2022/05/12 08:48:18;;;;;;;3.83;1.30;;;18.10;95.20;;;18.81;73.01;98358.81;5024235;28;20450;-76
2022/05/12 08:50:56;;;;;;;3.50;1.30;;;18.20;94.50;;;18.88;72.45;98372.75;5024316;28;20486;-76
2022/05/12 08:53:35;;;;;;;6.93;1.20;;;18.20;94.70;;;18.90;70.64;98365.38;5025399;28;20481;-76
2022/05/12 08:56:05;;;;;;;2.60;1.17;;;18.20;94.00;;;18.95;70.89;98366.28;5025036;28;20462;-76
2022/05/12 08:58:41;;;;;;;3.63;1.40;;;18.30;94.30;;;18.94;68.52;98377.13;5023512;28;20975;-76
2022/05/12 09:01:18;;;;;;;1.83;1.20;;;18.30;93.60;;;18.92;67.26;98364.09;5023779;28;20481;-76
2022/05/12 09:04:11;;;;;;;2.70;1.37;;;18.30;93.30;;;18.97;68.86;98366.88;5024444;28;20442;-76
2022/05/12 09:06:50;;;;;;;3.00;1.30;;;18.30;93.80;;;19.07;69.71;98363.63;5024165;28;20492;-75
2022/05/12 09:09:30;;;;;;;3.83;1.50;;;18.30;94.20;;;19.13;68.34;98367.97;5024772;28;20482;-76
2022/05/12 09:12:27;;;;;;;3.57;1.23;;;18.50;93.70;;;19.12;67.07;98381.47;5024310;28;20452;-76
2022/05/12 09:15:04;;;;;;;4.87;1.27;;;18.40;93.40;;;19.16;67.02;98377.31;5024458;28;20991;-76
2022/05/12 09:17:43;;;;;;;4.37;1.43;;;18.40;93.40;;;19.20;66.33;98357.22;5023307;28;20458;-76
2022/05/12 09:20:13;;;;;;;2.60;1.20;;;18.50;93.20;;;19.24;66.97;98363.69;5023381;28;20840;-76
2022/05/12 09:22:45;;;;;;;5.00;1.83;;;18.60;93.40;;;19.29;66.86;98361.97;5026181;28;21185;-76
2022/05/12 09:25:36;;;;;;;9.23;1.70;;;18.60;93.40;;;19.29;65.92;98367.25;5028730;28;20477;-76
2022/05/12 09:28:28;;;;;;;6.33;2.07;;;18.60;93.10;;;19.32;66.71;98374.75;5028191;28;20465;-76
2022/05/12 09:31:16;;;;;;;3.30;1.77;;;18.70;93.30;;;19.33;66.24;98372.91;5028772;28;21364;-76
2022/05/12 09:33:49;;;;;;;4.23;1.40;;;18.60;93.20;;;19.39;66.50;98351.56;5028456;28;20446;-76
2022/05/12 09:36:30;;;;;;;4.33;1.50;;;18.70;93.40;;;19.42;66.36;98358.25;5028546;28;20438;-76
2022/05/12 09:39:03;;;;;;;3.97;1.13;;;18.80;93.20;;;19.50;65.45;98345.44;5027988;28;20905;-75
2022/05/12 09:41:40;;;;;;;4.67;1.37;;;18.80;93.10;;;19.54;64.12;98351.84;5028104;28;21076;-76
2022/05/12 09:44:20;;;;;;;4.00;1.73;;;18.90;92.60;;;19.62;63.19;98349.88;5028501;28;20437;-76
2022/05/12 09:46:59;;;;;;;2.90;1.30;;;19.00;92.50;;;19.62;64.25;98349.88;5028091;28;20452;-76
2022/05/12 09:49:33;;;;;;;5.63;1.77;;;18.90;92.90;;;19.67;63.65;98342.00;5027871;28;20480;-76
2022/05/12 09:52:35;;;;;;;5.80;1.30;;;19.00;92.70;;;19.65;63.16;98336.94;5027551;28;20893;-76
2022/05/12 09:55:17;;;;;;;1.60;1.20;;;19.00;92.40;;;19.72;64.05;98334.94;5026354;28;20434;-76
2022/05/12 09:57:53;;;;;;;6.80;1.60;;;19.00;92.70;;;19.76;63.68;98337.91;5028275;28;20445;-76
2022/05/12 10:00:35;;;;;;;3.20;1.87;;;19.10;92.70;;;19.79;62.44;98332.13;5027812;28;20926;-76
2022/05/12 10:09:09;;;;;;;5.23;1.30;;;19.20;92.30;;;19.81;62.68;98330.88;5026828;28;20980;-76
2022/05/12 10:11:49;;;;;;;1.67;1.20;;;19.20;92.30;;;19.87;62.43;98337.06;5026881;28;20450;-77
2022/05/12 10:14:37;;;;;;;2.90;1.20;;;19.20;92.30;;;19.93;62.63;98320.16;5026209;28;20461;-76
2022/05/12 10:17:21;;;;;;;9.17;1.40;;;19.30;92.50;;;19.93;62.88;98341.41;5023870;28;20493;-76
2022/05/12 10:19:52;;;;;;;5.57;1.87;;;19.30;92.60;;;19.87;61.35;98324.59;5020196;28;20830;-76
2022/05/12 10:22:32;;;;;;;6.57;1.67;;;19.20;91.80;;;19.84;61.55;98332.22;5019738;28;20576;-76
2022/05/12 10:25:27;;;;;;;3.73;1.67;;;19.20;92.00;;;19.92;62.67;98323.88;5021246;28;20995;-76
2022/05/12 10:28:18;;;;;;;3.00;1.33;;;19.30;92.30;;;19.98;61.84;98328.22;5019033;28;20509;-76
2022/05/12 10:30:59;;;;;;;6.87;1.50;;;19.30;92.10;;;19.95;61.68;98340.16;5019496;28;20451;-76
2022/05/12 10:33:49;;;;;;;4.70;1.60;;;19.30;91.90;;;20.01;62.56;98339.19;5020876;28;20453;-76
2022/05/12 10:36:36;;;;;;;4.83;2.00;;;19.30;92.40;;;20.09;63.10;98330.00;5021552;28;20455;-76
2022/05/12 10:39:21;;;;;;;6.07;1.67;;;19.40;92.70;;;20.10;61.47;98332.41;5021131;28;21020;-76
2022/05/12 10:42:11;;;;;;;2.00;1.37;;;19.40;92.10;;;20.13;61.21;98325.84;5022304;28;20488;-76
2022/05/12 10:45:09;;;;;;;5.40;1.50;;;19.40;91.90;;;20.25;61.85;98331.84;5020576;28;20537;-76
2022/05/12 10:48:05;;;;;;;3.10;1.20;;;19.60;92.30;;;20.29;61.55;98326.91;5019825;28;20520;-75
2022/05/12 10:50:44;;;;;;;7.37;1.60;;;19.60;92.30;;;20.30;60.77;98341.81;5019334;28;20521;-75
2022/05/12 10:53:36;;;;;;;3.00;1.47;;;19.60;91.80;;;20.26;60.59;98336.13;5019748;28;20794;-75
2022/05/12 10:56:30;;;;;;;3.23;1.50;;;19.50;91.70;;;20.27;60.04;98326.31;5021405;28;20509;-76
2022/05/12 10:59:45;;;;;;;5.27;1.97;;;19.70;91.60;;;20.31;60.32;98330.91;5020544;28;20442;-76
2022/05/12 11:02:27;;;;;;;2.70;1.40;;;19.70;91.70;;;20.34;59.31;98330.44;5009294;28;20501;-76
2022/05/12 11:05:10;;;;;;;1.60;1.30;;;19.70;91.30;;;20.33;58.88;98326.19;5022043;28;20470;-76
2022/05/12 11:07:49;;;;;;;7.20;1.80;;;19.70;91.20;;;20.43;58.60;98323.69;5020840;28;20477;-76
2022/05/12 11:10:29;;;;;;;2.70;1.20;;;19.80;91.20;;;20.39;57.53;98319.88;5019524;28;20507;-76
2022/05/12 11:13:11;;;;;;;3.03;1.27;;;19.80;90.70;;;20.40;57.82;98321.50;5021188;28;20473;-76
2022/05/12 11:15:56;;;;;;;5.23;1.67;;;19.80;90.90;;;20.44;58.74;98317.28;5020684;28;20855;-76
2022/05/12 11:18:39;;;;;;;1.90;1.20;;;19.90;91.30;;;20.52;59.00;98308.09;5026050;28;20466;-76
2022/05/12 11:21:17;;;;;;;5.43;1.87;;;20.00;91.60;;;20.53;58.18;98321.16;5025256;28;20535;-76
2022/05/12 11:24:21;;;;;;;5.10;1.40;;;19.80;91.10;;;20.54;57.67;98320.13;5025479;28;20492;-76
2022/05/12 11:27:40;;;;;;;6.70;1.77;;;19.80;91.00;;;20.59;56.36;98314.06;5024345;28;20458;-76
2022/05/12 11:30:31;;;;;;;3.83;1.00;;;20.00;90.50;;;20.59;56.38;98317.53;5025923;28;20442;-76
2022/05/12 11:33:22;;;;;;;2.87;1.47;;;20.00;90.40;;;20.61;55.43;98316.47;5026907;28;21041;-76
2022/05/12 11:35:55;;;;;;;5.03;1.30;;;20.00;90.10;;;20.69;57.38;98310.75;5025116;28;20441;-76
2022/05/12 11:39:28;;;;;;;10.43;2.17;;;20.00;91.00;;;20.74;56.91;98310.81;5025086;28;21003;-76
2022/05/12 11:42:16;;;;;;;5.03;1.73;;;20.00;90.90;;;20.85;56.45;98313.38;5019576;28;20880;-76
2022/05/12 11:45:01;;;;;;;3.87;1.33;;;20.20;90.70;;;20.95;56.90;98310.03;5026083;28;20868;-76
2022/05/12 11:48:06;;;;;;;5.83;1.70;;;20.30;90.80;;;20.97;55.78;98307.91;5024971;28;20453;-76
2022/05/12 11:51:21;;;;;;;3.43;1.57;;;20.30;90.20;;;20.97;56.65;98300.75;5026818;28;20462;-76
2022/05/12 11:53:58;;;;;;;5.43;1.37;;;20.20;90.60;;;21.05;56.31;98302.19;5025379;28;20445;-76
2022/05/12 11:56:51;;;;;;;5.27;1.40;;;20.40;90.60;;;21.11;55.44;98313.69;5026845;28;20450;-76
2022/05/12 11:59:53;;;;;;;4.43;1.60;;;20.40;90.30;;;21.04;55.86;98311.19;5027458;28;20441;-76
2022/05/12 12:02:55;;;;;;;6.33;1.47;;;20.40;90.50;;;21.09;56.55;98303.28;5024821;28;20548;-76
2022/05/12 12:06:03;;;;;;;5.33;1.20;;;20.50;90.70;;;21.13;54.75;98299.13;5026010;28;20504;-76
2022/05/12 12:08:45;;;;;;;1.30;0.93;;;20.50;89.50;;;21.18;54.50;98290.38;5025294;28;20442;-76